METAR Data
IDs: Format: Raw Decoded Include TAF

Data at: 1119 UTC 18 Jan 2022

LIMK 181055Z 04009KT CAVOK 05/M03 Q1031 RMK SKC VAL NIL VIS MIN 9999